Time;durP1;ratioP1;P1;durP2;ratioP2;P2;SDS_P1;SDS_P2;PMS_P1;PMS_P2;Temp;Humidity;BMP_temperature;BMP_pressure;BME280_temperature;BME280_humidity;BME280_pressure;Samples;Min_cycle;Max_cycle;Signal;HPM_P1;HPM_P2
2022/10/18 00:00:59;;;;;;;68.18;20.23;;;13.30;99.90;;;;;;6042473;23;20440;-84
2022/10/18 00:03:25;;;;;;;26.98;17.15;;;13.30;99.90;;;;;;6044250;23;20018;-84
2022/10/18 00:05:51;;;;;;;27.65;16.35;;;13.30;99.90;;;;;;6042891;23;20349;-84
2022/10/18 00:08:18;;;;;;;34.15;18.45;;;13.30;99.90;;;;;;6042046;23;20352;-84
2022/10/18 00:10:44;;;;;;;33.72;16.58;;;13.30;99.90;;;;;;6044831;23;20128;-84
2022/10/18 00:13:10;;;;;;;36.15;17.85;;;13.30;99.90;;;;;;6044377;23;20014;-84
2022/10/18 00:15:35;;;;;;;31.15;17.00;;;13.30;99.90;;;;;;6068561;23;20044;-84
2022/10/18 00:18:01;;;;;;;29.35;16.05;;;13.30;99.90;;;;;;6044112;23;20017;-84
2022/10/18 00:20:27;;;;;;;195.27;29.13;;;13.30;99.90;;;;;;6044706;23;20018;-84
2022/10/18 00:22:53;;;;;;;62.05;20.52;;;13.30;99.90;;;;;;6044084;23;20053;-85
2022/10/18 00:25:19;;;;;;;41.17;18.25;;;13.30;99.90;;;;;;6044467;23;20414;-85
2022/10/18 00:27:45;;;;;;;38.95;18.88;;;13.30;99.90;;;;;;6044192;23;20050;-84
2022/10/18 00:30:10;;;;;;;61.53;19.98;;;13.40;99.90;;;;;;6041364;23;20017;-85
2022/10/18 00:32:38;;;;;;;38.90;18.98;;;13.30;99.90;;;;;;6044903;23;20014;-84
2022/10/18 00:35:05;;;;;;;37.65;19.20;;;13.40;99.90;;;;;;6043525;23;20062;-84
2022/10/18 00:37:31;;;;;;;42.22;19.75;;;13.40;99.90;;;;;;6043996;23;20420;-84
2022/10/18 00:39:57;;;;;;;41.13;20.23;;;13.40;99.90;;;;;;6043671;23;20011;-85
2022/10/18 00:42:30;;;;;;;33.45;18.95;;;13.40;99.90;;;;;;6044044;23;20448;-84
2022/10/18 00:45:04;;;;;;;35.15;19.42;;;13.40;99.90;;;;;;6044008;23;20022;-85
2022/10/18 00:47:31;;;;;;;33.33;18.08;;;13.30;99.90;;;;;;6067881;23;20033;-84
2022/10/18 00:50:00;;;;;;;41.28;20.30;;;13.30;99.90;;;;;;6042479;23;20010;-84
2022/10/18 00:52:36;;;;;;;43.92;20.20;;;13.30;99.90;;;;;;6068469;23;20015;-85
2022/10/18 00:55:03;;;;;;;31.83;17.98;;;13.30;99.90;;;;;;6043649;23;20025;-85
2022/10/18 00:57:29;;;;;;;34.38;19.10;;;13.30;99.90;;;;;;6068868;23;20033;-85
2022/10/18 00:59:55;;;;;;;34.42;19.05;;;13.30;99.90;;;;;;6066274;23;20472;-85
2022/10/18 01:02:21;;;;;;;34.45;18.17;;;13.30;99.90;;;;;;6068143;23;20177;-85
2022/10/18 01:04:47;;;;;;;32.55;17.73;;;13.30;99.90;;;;;;6043986;23;20054;-85
2022/10/18 01:07:34;;;;;;;33.15;17.67;;;13.30;99.90;;;;;;6068610;23;20163;-85
2022/10/18 01:10:14;;;;;;;35.80;17.42;;;13.20;99.90;;;;;;6056380;23;20081;-85
2022/10/18 01:13:02;;;;;;;27.52;16.00;;;13.20;99.90;;;;;;6068499;23;20014;-84
2022/10/18 01:15:57;;;;;;;42.03;19.08;;;13.10;99.90;;;;;;6067801;23;20076;-85
2022/10/18 01:19:02;;;;;;;31.58;16.70;;;13.10;99.90;;;;;;6020670;23;20428;-85
2022/10/18 01:21:30;;;;;;;37.95;18.33;;;13.10;99.90;;;;;;6051032;23;20046;-85
2022/10/18 01:24:38;;;;;;;50.22;19.48;;;13.10;99.90;;;;;;6068045;23;20018;-85
2022/10/18 01:27:19;;;;;;;36.40;17.00;;;13.10;99.90;;;;;;6044174;23;20021;-85
2022/10/18 01:30:03;;;;;;;52.45;19.80;;;13.10;99.90;;;;;;6067650;23;20062;-85
2022/10/18 01:32:38;;;;;;;47.22;18.35;;;13.00;99.90;;;;;;6067784;23;20425;-85
2022/10/18 01:35:10;;;;;;;43.72;18.52;;;13.00;99.90;;;;;;6043514;23;20401;-85
2022/10/18 01:37:38;;;;;;;29.67;16.25;;;13.00;99.90;;;;;;6067823;23;20017;-84
2022/10/18 01:40:05;;;;;;;30.98;16.92;;;13.00;99.90;;;;;;6066628;23;20015;-85
2022/10/18 01:42:32;;;;;;;32.45;16.55;;;13.00;99.90;;;;;;6043017;23;20018;-85
2022/10/18 01:44:59;;;;;;;32.17;17.15;;;13.00;99.90;;;;;;6043718;23;20018;-85
2022/10/18 01:47:26;;;;;;;42.92;18.38;;;12.90;99.90;;;;;;6044549;23;20049;-85
2022/10/18 01:50:01;;;;;;;45.92;20.08;;;12.90;99.90;;;;;;6067396;23;20452;-85
2022/10/18 01:52:27;;;;;;;33.60;16.70;;;12.90;99.90;;;;;;6043439;23;20010;-84
2022/10/18 01:54:54;;;;;;;35.38;18.55;;;12.90;99.90;;;;;;6042351;23;20455;-85
2022/10/18 01:57:36;;;;;;;64.20;19.55;;;12.90;99.90;;;;;;6044186;23;20017;-85
2022/10/18 02:00:24;;;;;;;51.50;18.73;;;12.90;99.90;;;;;;6067045;23;20471;-85
2022/10/18 02:03:13;;;;;;;76.82;19.45;;;13.00;99.90;;;;;;6039528;23;20015;-85
2022/10/18 02:05:58;;;;;;;59.10;18.33;;;12.90;99.90;;;;;;6041283;23;20011;-85
2022/10/18 02:08:26;;;;;;;50.75;18.13;;;13.00;99.90;;;;;;6067134;23;20010;-85
2022/10/18 02:11:11;;;;;;;187.02;24.05;;;13.00;99.90;;;;;;6067125;23;20018;-85
2022/10/18 02:14:02;;;;;;;82.53;18.70;;;13.00;99.90;;;;;;6042709;23;20097;-84
2022/10/18 02:16:53;;;;;;;162.10;22.30;;;13.00;99.90;;;;;;6043749;23;20033;-85
2022/10/18 02:19:34;;;;;;;52.13;18.77;;;13.00;99.90;;;;;;6067499;23;20021;-85
2022/10/18 02:22:01;;;;;;;199.18;26.13;;;13.00;99.90;;;;;;6043104;23;20018;-84
2022/10/18 02:24:34;;;;;;;81.97;19.13;;;13.00;99.90;;;;;;6042427;23;20049;-85
2022/10/18 02:27:00;;;;;;;52.03;16.98;;;13.00;99.90;;;;;;6043099;23;20116;-84
2022/10/18 02:29:27;;;;;;;116.45;21.15;;;13.10;99.90;;;;;;6067525;23;20018;-84
2022/10/18 02:32:31;;;;;;;51.30;17.75;;;13.10;99.90;;;;;;6043260;23;20058;-85
2022/10/18 02:35:28;;;;;;;47.17;18.02;;;13.10;99.90;;;;;;6067105;23;20081;-85
2022/10/18 02:37:55;;;;;;;72.95;19.35;;;13.10;99.90;;;;;;6067175;23;20014;-84
2022/10/18 02:40:21;;;;;;;86.85;19.00;;;13.10;99.90;;;;;;6042657;23;20355;-85
2022/10/18 02:42:56;;;;;;;72.68;18.85;;;13.10;99.90;;;;;;6042264;23;20468;-85
2022/10/18 02:45:23;;;;;;;78.47;18.73;;;13.20;99.90;;;;;;6065893;23;20018;-85
2022/10/18 02:47:49;;;;;;;66.05;18.30;;;13.10;99.90;;;;;;6043943;23;20018;-85
2022/10/18 02:50:15;;;;;;;175.73;24.13;;;12.10;99.90;;;;;;6042450;23;20110;-85
2022/10/18 02:52:41;;;;;;;57.08;18.45;;;13.20;99.90;;;;;;6067000;23;20053;-85
2022/10/18 02:55:08;;;;;;;46.17;17.88;;;13.10;99.90;;;;;;6042687;23;20456;-84
2022/10/18 02:57:34;;;;;;;164.25;23.67;;;13.10;99.90;;;;;;6044041;23;20017;-84
2022/10/18 03:00:00;;;;;;;168.30;24.50;;;13.10;99.90;;;;;;6043401;23;20033;-84
2022/10/18 03:02:26;;;;;;;52.95;17.38;;;13.20;99.90;;;;;;6066874;23;20460;-85
2022/10/18 03:04:52;;;;;;;42.35;16.88;;;13.10;99.90;;;;;;6042847;23;20014;-85
2022/10/18 03:07:17;;;;;;;43.47;16.73;;;13.10;99.90;;;;;;6042427;23;20015;-84
2022/10/18 03:09:43;;;;;;;45.08;17.48;;;13.20;99.90;;;;;;6042967;23;20235;-84
2022/10/18 03:12:09;;;;;;;66.53;18.38;;;13.30;99.90;;;;;;6043549;23;20018;-85
2022/10/18 03:14:34;;;;;;;40.95;16.73;;;13.10;99.90;;;;;;6042577;23;20049;-85
2022/10/18 03:17:00;;;;;;;49.05;17.13;;;13.10;99.90;;;;;;6066400;23;20073;-85
2022/10/18 03:19:26;;;;;;;46.60;17.60;;;13.10;99.90;;;;;;6042815;23;20024;-85
2022/10/18 03:21:51;;;;;;;38.30;16.48;;;13.10;99.90;;;;;;6043275;23;20025;-85
2022/10/18 03:24:17;;;;;;;73.95;18.17;;;13.10;99.90;;;;;;6042948;23;20025;-85
2022/10/18 03:26:43;;;;;;;37.70;16.77;;;13.30;99.90;;;;;;6067115;23;20037;-84
2022/10/18 03:29:09;;;;;;;47.70;16.52;;;13.10;99.90;;;;;;6066743;23;20091;-85
2022/10/18 03:31:35;;;;;;;43.65;15.63;;;13.10;99.90;;;;;;6042025;23;20022;-84
2022/10/18 03:34:01;;;;;;;35.47;16.00;;;13.00;99.90;;;;;;6042928;23;20011;-85
2022/10/18 03:36:27;;;;;;;36.05;16.15;;;13.00;99.90;;;;;;6042135;23;20016;-84
2022/10/18 03:38:52;;;;;;;38.80;16.15;;;13.00;99.90;;;;;;6042972;23;20161;-85
2022/10/18 03:41:19;;;;;;;49.00;18.45;;;13.00;99.90;;;;;;6043655;23;20018;-84
2022/10/18 03:43:45;;;;;;;182.80;26.05;;;13.00;99.90;;;;;;6043167;23;20345;-85
2022/10/18 03:46:11;;;;;;;37.80;16.38;;;13.00;99.90;;;;;;6040912;23;20384;-84
2022/10/18 03:48:37;;;;;;;35.53;16.80;;;13.00;99.90;;;;;;6042658;23;20194;-85
2022/10/18 03:51:03;;;;;;;33.10;15.93;;;13.00;99.90;;;;;;6043094;23;20025;-85
2022/10/18 03:53:28;;;;;;;34.58;15.93;;;13.00;99.90;;;;;;6042044;23;20460;-84
2022/10/18 03:55:55;;;;;;;35.50;16.13;;;13.00;99.90;;;;;;6042944;23;20006;-84
2022/10/18 03:58:21;;;;;;;30.85;15.57;;;13.00;99.90;;;;;;6066299;23;20021;-84
2022/10/18 04:00:51;;;;;;;52.45;16.98;;;12.90;99.90;;;;;;6067313;23;20207;-84
2022/10/18 04:03:18;;;;;;;56.95;17.65;;;13.00;99.90;;;;;;6042477;23;20019;-84
2022/10/18 04:05:45;;;;;;;41.97;16.85;;;13.00;99.90;;;;;;6066302;23;20532;-85
2022/10/18 04:08:11;;;;;;;207.00;26.42;;;12.90;99.90;;;;;;6039737;23;20014;-85
2022/10/18 04:10:38;;;;;;;31.02;15.68;;;12.90;99.90;;;;;;6065808;23;20040;-84
2022/10/18 04:13:05;;;;;;;34.70;15.80;;;12.80;99.90;;;;;;6042989;23;20341;-85
2022/10/18 04:15:31;;;;;;;64.53;18.10;;;12.90;99.90;;;;;;6090756;23;20126;-85
2022/10/18 04:17:57;;;;;;;27.58;15.25;;;12.80;99.90;;;;;;6042290;23;20560;-85
2022/10/18 04:20:23;;;;;;;34.38;16.80;;;12.80;99.90;;;;;;6042524;23;20050;-84
2022/10/18 04:22:49;;;;;;;39.67;16.40;;;12.80;99.90;;;;;;6042629;23;20399;-85
2022/10/18 04:25:15;;;;;;;43.47;15.77;;;12.80;99.90;;;;;;6041374;23;20018;-85
2022/10/18 04:27:41;;;;;;;65.80;18.75;;;12.80;99.90;;;;;;6065687;23;20053;-84
2022/10/18 04:30:07;;;;;;;41.92;15.85;;;12.80;99.90;;;;;;6066222;23;20018;-84
2022/10/18 04:32:34;;;;;;;81.35;18.73;;;12.80;99.90;;;;;;6042878;23;20015;-84
2022/10/18 04:35:01;;;;;;;74.38;18.13;;;12.90;99.90;;;;;;6042978;23;20025;-84
2022/10/18 04:37:26;;;;;;;47.88;17.40;;;12.80;99.90;;;;;;6043086;23;20024;-84
2022/10/18 04:39:52;;;;;;;32.85;16.10;;;12.80;99.90;;;;;;6063968;23;20011;-85
2022/10/18 04:42:18;;;;;;;44.92;18.20;;;12.80;99.90;;;;;;6041211;23;20017;-84
2022/10/18 04:44:43;;;;;;;31.08;15.75;;;12.70;99.90;;;;;;6041690;23;20026;-85
2022/10/18 04:47:09;;;;;;;29.23;15.90;;;12.70;99.90;;;;;;6042106;23;20285;-84
2022/10/18 04:49:35;;;;;;;34.55;15.32;;;12.70;99.90;;;;;;6041583;23;20011;-85
2022/10/18 04:52:00;;;;;;;52.05;16.80;;;12.70;99.90;;;;;;6067229;23;20492;-84
2022/10/18 04:54:26;;;;;;;32.35;14.93;;;12.60;99.90;;;;;;6041881;23;20186;-84
2022/10/18 04:56:52;;;;;;;40.40;14.75;;;12.60;99.90;;;;;;6043785;23;20322;-84
2022/10/18 04:59:18;;;;;;;49.38;15.15;;;12.60;99.90;;;;;;6042806;23;20448;-84
2022/10/18 05:01:43;;;;;;;48.35;14.73;;;12.60;99.90;;;;;;6042989;23;20167;-85
2022/10/18 05:04:09;;;;;;;46.22;14.85;;;12.60;99.90;;;;;;6067923;23;20019;-85
2022/10/18 05:06:35;;;;;;;41.08;15.48;;;12.50;99.90;;;;;;6067604;23;20014;-84
2022/10/18 05:09:00;;;;;;;34.42;14.10;;;12.50;99.90;;;;;;6064045;23;20022;-84
2022/10/18 05:11:26;;;;;;;41.95;14.80;;;12.50;99.90;;;;;;6066910;23;20393;-84
2022/10/18 05:13:52;;;;;;;39.22;14.80;;;12.50;99.90;;;;;;6043886;23;20041;-84
2022/10/18 05:16:18;;;;;;;41.17;14.15;;;12.50;99.90;;;;;;6068697;23;20085;-84
2022/10/18 05:18:44;;;;;;;48.33;15.30;;;12.40;99.90;;;;;;6044420;23;20046;-84
2022/10/18 05:21:11;;;;;;;113.05;18.77;;;12.40;99.90;;;;;;6068097;23;20025;-84
2022/10/18 05:23:37;;;;;;;133.80;22.70;;;12.40;99.90;;;;;;6021007;23;20025;-84
2022/10/18 05:26:05;;;;;;;42.30;14.73;;;12.40;99.90;;;;;;6064819;23;20328;-84
2022/10/18 05:28:31;;;;;;;49.38;15.10;;;12.40;99.90;;;;;;6067633;23;20262;-84
2022/10/18 05:31:02;;;;;;;43.05;14.25;;;12.30;99.90;;;;;;6042159;23;20015;-84
2022/10/18 05:33:28;;;;;;;42.33;13.95;;;12.30;99.90;;;;;;6043281;23;20214;-84
2022/10/18 05:35:54;;;;;;;29.98;13.25;;;12.30;99.90;;;;;;6043496;23;20093;-84
2022/10/18 05:38:20;;;;;;;50.13;14.10;;;12.30;99.90;;;;;;6044452;23;20462;-84
2022/10/18 05:40:45;;;;;;;74.53;15.15;;;12.30;99.90;;;;;;6045030;23;20364;-84
2022/10/18 05:43:11;;;;;;;39.88;14.50;;;12.30;99.90;;;;;;6044449;23;20029;-84
2022/10/18 05:45:37;;;;;;;44.42;13.43;;;12.20;99.90;;;;;;6043535;23;20828;-84
2022/10/18 05:48:04;;;;;;;178.82;18.98;;;12.20;99.90;;;;;;6044976;23;20019;-84
2022/10/18 05:50:30;;;;;;;41.75;12.95;;;12.20;99.90;;;;;;6045211;23;20340;-85
2022/10/18 05:52:56;;;;;;;75.25;13.82;;;12.20;99.90;;;;;;6044746;23;20048;-84
2022/10/18 05:55:22;;;;;;;44.30;12.80;;;12.30;99.90;;;;;;6044342;23;20351;-84
2022/10/18 05:57:49;;;;;;;86.05;15.05;;;12.10;99.90;;;;;;6043269;23;20259;-84
2022/10/18 06:00:15;;;;;;;27.52;12.25;;;12.10;99.90;;;;;;6043174;23;20077;-84
2022/10/18 06:02:41;;;;;;;66.55;13.82;;;12.10;99.90;;;;;;6044452;23;20520;-84
2022/10/18 06:05:07;;;;;;;81.22;14.18;;;12.10;99.90;;;;;;6044162;23;20061;-84
2022/10/18 06:07:32;;;;;;;53.95;14.55;;;12.00;99.90;;;;;;6043996;23;20022;-84
2022/10/18 06:09:58;;;;;;;25.77;12.05;;;12.00;99.90;;;;;;6067506;23;20018;-84
2022/10/18 06:12:24;;;;;;;27.00;12.93;;;12.00;99.90;;;;;;6042534;23;20054;-84
2022/10/18 06:14:49;;;;;;;35.95;12.52;;;12.00;99.90;;;;;;6061151;23;20042;-84
2022/10/18 06:17:15;;;;;;;66.28;14.75;;;12.00;99.90;;;;;;6066391;23;20026;-83
2022/10/18 06:19:43;;;;;;;26.75;11.52;;;11.90;99.90;;;;;;6042505;23;20021;-83
2022/10/18 06:22:09;;;;;;;24.38;11.10;;;11.90;99.90;;;;;;6044643;23;20018;-83
2022/10/18 06:24:35;;;;;;;26.80;11.52;;;11.90;99.90;;;;;;6043586;23;20014;-84
2022/10/18 06:27:07;;;;;;;68.70;14.63;;;11.90;99.90;;;;;;6068221;23;20574;-84
2022/10/18 06:29:33;;;;;;;27.40;10.70;;;11.90;99.90;;;;;;6043350;23;20053;-83
2022/10/18 06:31:59;;;;;;;49.17;11.50;;;12.40;99.90;;;;;;6042787;23;20093;-83
2022/10/18 06:34:25;;;;;;;54.38;10.55;;;11.90;99.90;;;;;;6043299;23;20046;-84
2022/10/18 06:36:50;;;;;;;32.83;9.73;;;11.80;99.90;;;;;;6043518;23;20468;-84
2022/10/18 06:39:16;;;;;;;75.30;12.25;;;11.80;99.90;;;;;;6017166;23;20592;-83
2022/10/18 06:41:42;;;;;;;139.02;15.65;;;11.80;99.90;;;;;;6043848;23;20026;-84
2022/10/18 06:44:12;;;;;;;176.63;14.88;;;11.80;99.90;;;;;;6043391;23;20044;-83
2022/10/18 06:46:42;;;;;;;131.95;12.45;;;11.70;99.90;;;;;;6067688;23;20022;-82
2022/10/18 06:49:08;;;;;;;197.65;14.40;;;11.70;99.90;;;;;;6042124;23;20093;-84
2022/10/18 06:51:34;;;;;;;169.80;12.82;;;11.60;99.90;;;;;;6043299;23;20046;-84
2022/10/18 06:54:00;;;;;;;108.75;11.30;;;11.60;99.90;;;;;;6041714;23;20085;-83
2022/10/18 06:56:26;;;;;;;82.22;10.38;;;11.60;99.90;;;;;;6067478;23;20069;-84
2022/10/18 06:58:52;;;;;;;91.43;10.10;;;11.60;99.90;;;;;;6043094;23;20010;-83
2022/10/18 07:01:18;;;;;;;61.65;9.98;;;12.00;99.90;;;;;;6066465;23;20018;-82
2022/10/18 07:03:46;;;;;;;91.70;11.35;;;11.60;99.90;;;;;;6043317;23;20022;-84
2022/10/18 07:06:13;;;;;;;45.85;10.00;;;11.60;99.90;;;;;;6043696;23;20014;-82
2022/10/18 07:08:40;;;;;;;40.28;9.65;;;11.60;99.90;;;;;;6067131;23;20022;-83
2022/10/18 07:11:06;;;;;;;44.97;9.20;;;11.60;99.90;;;;;;6066824;23;20018;-83
2022/10/18 07:13:33;;;;;;;46.72;10.27;;;11.60;99.90;;;;;;6018769;23;20029;-83
2022/10/18 07:16:00;;;;;;;54.67;9.40;;;11.70;99.90;;;;;;6066916;23;20467;-83
2022/10/18 07:18:25;;;;;;;27.25;8.60;;;11.70;99.90;;;;;;6067356;23;20030;-83
2022/10/18 07:20:51;;;;;;;34.17;9.43;;;11.70;99.90;;;;;;6066997;23;20014;-82
2022/10/18 07:23:17;;;;;;;97.15;12.02;;;11.70;99.90;;;;;;6041526;23;20029;-82
2022/10/18 07:25:43;;;;;;;60.92;10.20;;;11.60;99.90;;;;;;6043428;23;20142;-83
2022/10/18 07:28:09;;;;;;;31.08;8.85;;;11.60;99.90;;;;;;6067342;23;20197;-83
2022/10/18 07:30:34;;;;;;;30.45;8.80;;;11.60;99.90;;;;;;6066684;23;20062;-83
2022/10/18 07:33:00;;;;;;;27.20;8.73;;;11.60;99.90;;;;;;6043278;23;20014;-81
2022/10/18 07:35:26;;;;;;;36.20;10.15;;;11.70;99.90;;;;;;6018633;23;20017;-83
2022/10/18 07:37:51;;;;;;;17.98;7.75;;;11.70;99.90;;;;;;6043950;23;20069;-83
2022/10/18 07:40:17;;;;;;;25.33;8.77;;;11.70;99.90;;;;;;6042563;23;20353;-83
2022/10/18 07:42:43;;;;;;;20.50;8.70;;;11.80;99.90;;;;;;6043168;23;20326;-82
2022/10/18 07:45:11;;;;;;;18.98;8.50;;;11.80;99.90;;;;;;6065896;23;20080;-82
2022/10/18 07:47:37;;;;;;;40.95;10.68;;;11.80;99.90;;;;;;6067406;23;20027;-82
2022/10/18 07:50:02;;;;;;;16.73;8.77;;;11.90;99.90;;;;;;6043262;23;20350;-83
2022/10/18 07:52:28;;;;;;;16.98;8.48;;;11.90;99.90;;;;;;6042958;23;20022;-83
2022/10/18 07:54:54;;;;;;;14.93;8.80;;;12.00;99.90;;;;;;6065769;23;20014;-82
2022/10/18 07:57:19;;;;;;;17.05;8.45;;;12.00;99.90;;;;;;6067564;23;20019;-82
2022/10/18 07:59:47;;;;;;;16.35;8.40;;;12.10;99.90;;;;;;6043315;23;20049;-82
2022/10/18 08:02:12;;;;;;;16.70;8.63;;;12.10;99.90;;;;;;6042230;23;20406;-82
2022/10/18 08:04:38;;;;;;;15.43;8.45;;;12.10;99.90;;;;;;6042939;23;20050;-82
2022/10/18 08:07:04;;;;;;;16.60;8.52;;;12.20;99.90;;;;;;6043377;23;20412;-81
2022/10/18 08:09:29;;;;;;;15.10;8.23;;;12.20;99.90;;;;;;6043341;23;20098;-82
2022/10/18 08:11:55;;;;;;;15.25;8.40;;;12.30;99.90;;;;;;6066874;23;20042;-81
2022/10/18 08:14:21;;;;;;;18.20;8.57;;;12.40;99.90;;;;;;6041830;23;20061;-82
2022/10/18 08:16:46;;;;;;;14.68;8.05;;;12.40;99.90;;;;;;6041420;23;20018;-82
2022/10/18 08:19:12;;;;;;;15.80;7.07;;;12.50;99.90;;;;;;6043081;23;20179;-82
2022/10/18 08:21:38;;;;;;;16.83;5.75;;;12.60;99.90;;;;;;6067485;23;20504;-81
2022/10/18 08:24:04;;;;;;;15.10;6.25;;;12.60;99.90;;;;;;6019853;23;20089;-82
2022/10/18 08:26:29;;;;;;;14.00;5.72;;;12.60;99.90;;;;;;6067660;23;20318;-82
2022/10/18 08:28:55;;;;;;;16.67;6.28;;;12.70;99.90;;;;;;6020940;23;20058;-82
2022/10/18 08:31:21;;;;;;;16.08;6.07;;;12.80;99.90;;;;;;6069197;23;20364;-82
2022/10/18 08:33:46;;;;;;;15.77;6.13;;;12.80;99.90;;;;;;6020359;23;20022;-82
2022/10/18 08:36:14;;;;;;;14.70;5.85;;;12.80;99.90;;;;;;6044688;23;20014;-82
2022/10/18 08:38:41;;;;;;;13.25;5.97;;;12.90;99.90;;;;;;6044244;23;20010;-83
2022/10/18 08:41:22;;;;;;;15.77;6.35;;;12.90;99.90;;;;;;6045296;23;20263;-84
2022/10/18 08:44:06;;;;;;;15.63;5.93;;;13.00;99.90;;;;;;6044863;23;20014;-83
2022/10/18 08:46:34;;;;;;;11.63;5.80;;;13.30;99.90;;;;;;6043980;23;20022;-84
2022/10/18 08:49:02;;;;;;;11.82;6.05;;;13.10;99.90;;;;;;6043815;23;20030;-83
2022/10/18 08:51:41;;;;;;;13.40;6.57;;;13.20;99.90;;;;;;6045216;23;20019;-82
2022/10/18 08:54:13;;;;;;;17.80;6.40;;;13.20;99.90;;;;;;6067893;23;20148;-84
2022/10/18 08:56:44;;;;;;;16.70;7.10;;;13.30;99.90;;;;;;6044764;23;20010;-84
2022/10/18 08:59:11;;;;;;;16.25;5.47;;;13.30;99.90;;;;;;6043507;23;20238;-84
2022/10/18 09:01:40;;;;;;;21.80;6.32;;;13.40;99.90;;;;;;6069165;23;20417;-82
2022/10/18 09:04:31;;;;;;;14.20;5.20;;;13.50;99.90;;;;;;6043845;23;20117;-84
2022/10/18 09:07:27;;;;;;;16.75;6.30;;;13.50;99.90;;;;;;6068610;23;20022;-84
2022/10/18 09:10:15;;;;;;;16.27;4.97;;;13.60;99.90;;;;;;6068113;23;20019;-84
2022/10/18 09:12:59;;;;;;;16.77;5.05;;;13.70;99.90;;;;;;6044961;23;20047;-84
2022/10/18 09:15:27;;;;;;;17.15;5.00;;;13.80;99.90;;;;;;6067895;23;20446;-84
2022/10/18 09:18:00;;;;;;;15.07;4.75;;;13.90;99.90;;;;;;6068500;23;20157;-84
2022/10/18 09:20:33;;;;;;;13.98;4.40;;;13.90;99.90;;;;;;6043780;23;20036;-85
2022/10/18 09:23:14;;;;;;;11.68;3.97;;;14.00;99.90;;;;;;6068002;23;20050;-83
2022/10/18 09:25:54;;;;;;;11.25;3.83;;;14.10;99.90;;;;;;6044015;23;20018;-83
2022/10/18 09:28:54;;;;;;;17.38;4.63;;;14.10;99.90;;;;;;6068150;23;20454;-83
2022/10/18 09:31:23;;;;;;;17.30;3.83;;;14.20;99.90;;;;;;5971357;23;20022;-85
2022/10/18 09:34:00;;;;;;;17.00;4.38;;;14.20;99.90;;;;;;6044225;23;20015;-85
2022/10/18 09:36:34;;;;;;;15.13;3.60;;;14.30;99.90;;;;;;6068884;23;20025;-85
2022/10/18 09:39:17;;;;;;;14.27;3.53;;;14.40;99.90;;;;;;6044231;23;20373;-85
2022/10/18 09:41:45;;;;;;;15.50;3.05;;;14.40;99.90;;;;;;6044350;23;20081;-85
2022/10/18 09:44:26;;;;;;;16.15;3.38;;;14.50;99.90;;;;;;6067331;23;20014;-84
2022/10/18 09:46:59;;;;;;;13.55;2.55;;;14.50;99.90;;;;;;6068420;23;20014;-84
2022/10/18 09:49:30;;;;;;;11.95;3.00;;;14.60;99.90;;;;;;6044041;23;20037;-85
2022/10/18 09:52:00;;;;;;;14.98;2.85;;;14.60;99.90;;;;;;6043647;23;20014;-84
2022/10/18 09:54:32;;;;;;;15.27;3.05;;;14.70;99.90;;;;;;6042954;23;20017;-85
2022/10/18 09:57:08;;;;;;;12.70;3.20;;;14.70;99.90;;;;;;6043485;23;20018;-83
2022/10/18 09:59:45;;;;;;;15.98;2.95;;;14.80;99.90;;;;;;6066501;23;20021;-83
2022/10/18 10:02:14;;;;;;;15.93;2.95;;;14.80;99.90;;;;;;6067401;23;20018;-84
2022/10/18 10:04:40;;;;;;;11.30;2.30;;;14.80;99.90;;;;;;6042193;23;20019;-83
2022/10/18 10:07:10;;;;;;;12.10;2.63;;;14.90;99.90;;;;;;6020546;23;20519;-82
2022/10/18 10:09:54;;;;;;;12.85;2.70;;;14.90;99.90;;;;;;6043264;23;20022;-83
2022/10/18 10:12:33;;;;;;;15.07;3.13;;;15.00;99.90;;;;;;6043774;23;20094;-83
2022/10/18 10:15:21;;;;;;;18.25;3.17;;;15.00;99.90;;;;;;6068156;23;20050;-83
2022/10/18 10:17:56;;;;;;;11.40;2.78;;;15.10;99.90;;;;;;6044773;23;20022;-82
2022/10/18 10:20:29;;;;;;;14.77;3.00;;;15.10;99.90;;;;;;6043809;23;20056;-83
2022/10/18 10:23:08;;;;;;;12.50;2.92;;;15.00;99.90;;;;;;6043594;23;20006;-83
2022/10/18 10:25:37;;;;;;;14.93;2.78;;;15.10;99.90;;;;;;6044298;23;20015;-83
2022/10/18 10:28:18;;;;;;;12.75;2.80;;;15.20;99.90;;;;;;6067289;23;20286;-83
2022/10/18 10:30:44;;;;;;;13.45;2.80;;;15.20;99.90;;;;;;6042601;23;20046;-83
2022/10/18 10:33:30;;;;;;;15.43;2.90;;;15.10;99.90;;;;;;6019086;23;20444;-82
2022/10/18 10:36:01;;;;;;;17.85;2.85;;;15.20;99.90;;;;;;6043835;23;20033;-83
2022/10/18 10:38:29;;;;;;;16.60;2.75;;;15.20;99.90;;;;;;6042555;23;20271;-83
2022/10/18 10:40:55;;;;;;;14.70;2.60;;;15.30;99.90;;;;;;6066881;23;20090;-82
2022/10/18 10:43:36;;;;;;;12.90;2.25;;;15.40;99.90;;;;;;6066985;23;20120;-83
2022/10/18 10:46:04;;;;;;;13.20;2.72;;;15.30;99.90;;;;;;6042729;23;20026;-83
2022/10/18 10:48:50;;;;;;;15.07;2.53;;;15.40;99.90;;;;;;6065557;23;20050;-83
2022/10/18 10:51:27;;;;;;;10.73;2.38;;;15.50;99.90;;;;;;6066364;23;20015;-82
2022/10/18 10:54:03;;;;;;;15.00;2.78;;;15.60;99.90;;;;;;6074230;23;20018;-84
2022/10/18 10:56:34;;;;;;;12.93;2.30;;;15.70;99.90;;;;;;6060931;23;20019;-84
2022/10/18 10:59:08;;;;;;;10.50;2.13;;;15.80;99.90;;;;;;6065866;23;20528;-85
2022/10/18 11:01:35;;;;;;;10.45;2.60;;;15.70;99.90;;;;;;6064250;23;20464;-84
2022/10/18 11:04:29;;;;;;;11.95;2.50;;;15.60;99.90;;;;;;6039973;23;20018;-83
2022/10/18 11:07:04;;;;;;;13.63;2.45;;;15.50;99.90;;;;;;6040660;23;20014;-83
2022/10/18 11:09:49;;;;;;;15.93;2.25;;;15.50;99.90;;;;;;6064362;23;20018;-83
2022/10/18 11:12:32;;;;;;;12.38;2.40;;;15.50;99.90;;;;;;6064351;23;20019;-84
2022/10/18 11:15:12;;;;;;;11.05;2.58;;;15.60;99.90;;;;;;6039730;23;20022;-84
2022/10/18 11:17:38;;;;;;;11.23;2.20;;;15.60;99.90;;;;;;6065182;23;20018;-86
2022/10/18 11:20:09;;;;;;;11.52;2.15;;;15.50;99.90;;;;;;6064879;23;20018;-85
2022/10/18 11:22:48;;;;;;;11.35;2.40;;;15.30;99.90;;;;;;6064337;23;20016;-84
2022/10/18 11:25:15;;;;;;;10.88;1.98;;;15.20;99.90;;;;;;6041068;23;20036;-84
2022/10/18 11:27:51;;;;;;;12.48;2.60;;;15.40;99.90;;;;;;6041542;23;20015;-83
2022/10/18 11:30:55;;;;;;;12.10;2.30;;;15.50;99.90;;;;;;6064413;23;20022;-83
2022/10/18 11:33:23;;;;;;;;;;;15.60;99.90;;;;;;6064671;23;20014;-84
2022/10/18 11:36:19;;;;;;;8.80;2.03;;;15.60;99.90;;;;;;6064914;23;19991;-83
2022/10/18 11:38:50;;;;;;;11.50;2.13;;;15.50;99.90;;;;;;6064099;23;20052;-84
2022/10/18 11:41:31;;;;;;;11.27;2.42;;;15.50;99.90;;;;;;6064558;23;20015;-84
2022/10/18 11:44:08;;;;;;;11.00;2.00;;;15.50;99.90;;;;;;6063269;23;20388;-84
2022/10/18 11:47:03;;;;;;;10.40;2.00;;;15.60;99.90;;;;;;6064289;23;20026;-85
2022/10/18 11:50:10;;;;;;;8.70;1.63;;;15.60;99.90;;;;;;6024069;23;20097;-84
2022/10/18 11:52:44;;;;;;;9.13;2.20;;;15.50;99.90;;;;;;5985412;23;20054;-83
2022/10/18 11:55:19;;;;;;;9.43;2.20;;;15.40;99.90;;;;;;6064563;23;20453;-84
2022/10/18 11:57:57;;;;;;;14.93;2.17;;;15.40;99.90;;;;;;6065107;23;20018;-85
2022/10/18 12:00:27;;;;;;;12.13;2.00;;;15.60;99.90;;;;;;6066166;23;20021;-86
2022/10/18 12:03:10;;;;;;;15.65;2.47;;;15.80;99.90;;;;;;6027378;23;20461;-85
2022/10/18 12:05:37;;;;;;;;;;;16.10;99.90;;;;;;6040603;23;20010;-83
2022/10/18 12:08:24;;;;;;;14.73;2.58;;;16.30;99.90;;;;;;6067693;23;20394;-84
2022/10/18 12:10:55;;;;;;;10.48;2.22;;;16.20;99.90;;;;;;6050817;23;20015;-84
2022/10/18 12:13:43;;;;;;;11.63;2.30;;;16.00;99.90;;;;;;6039090;23;20058;-86
2022/10/18 12:16:11;;;;;;;11.35;2.30;;;15.80;99.90;;;;;;6062127;23;20073;-86
2022/10/18 12:18:51;;;;;;;13.02;2.47;;;15.70;99.90;;;;;;6064276;23;20014;-86
2022/10/18 12:21:20;;;;;;;12.85;2.75;;;15.60;99.90;;;;;;6066247;23;20515;-87
2022/10/18 12:24:01;;;;;;;11.00;2.00;;;15.70;99.90;;;;;;6042220;23;20025;-86
2022/10/18 12:26:27;;;;;;;13.55;2.30;;;15.80;99.90;;;;;;6043322;23;20026;-84
2022/10/18 12:29:07;;;;;;;12.00;2.15;;;16.00;99.90;;;;;;6041908;23;20018;-83
2022/10/18 12:31:46;;;;;;;12.13;2.72;;;16.00;99.90;;;;;;6066469;23;20349;-84
2022/10/18 12:34:21;;;;;;;12.52;1.90;;;16.20;99.90;;;;;;6041635;23;20014;-87
2022/10/18 12:37:05;;;;;;;10.48;2.42;;;16.30;99.90;;;;;;6066403;23;20037;-86
2022/10/18 12:39:36;;;;;;;13.00;2.25;;;16.40;99.90;;;;;;6066363;23;20037;-85
2022/10/18 12:42:02;;;;;;;13.63;2.10;;;16.40;99.90;;;;;;6041782;23;20033;-84
2022/10/18 12:44:31;;;;;;;11.30;2.20;;;16.20;99.90;;;;;;6042797;23;20392;-86
2022/10/18 12:47:03;;;;;;;9.80;2.10;;;16.20;99.90;;;;;;6042103;23;20476;-86
2022/10/18 12:49:35;;;;;;;10.27;2.15;;;16.20;99.90;;;;;;6064812;23;20022;-84